Terminal Aerodrome Forecast
Issued by NWS Cleveland, OH

Home | Current Version | Previous Version | Text Only | Print | Product List | Glossary On
Versions: 1 2 3 4 5 6 7 8 9 10 11 12 13 14 15 16 17 18
000
FTUS41 KCLE 112025 AAA
TAFYNG
TAF AMD
KYNG 112025Z 1120/1218 19008KT P6SM SCT025 OVC060
      TEMPO 1120/1123 2SM -SHSN BKN035
     FM120300 21008KT P6SM VCSH BKN035
     FM120500 26012KT 4SM -SN OVC025
     FM120800 30015G25KT 1SM -SN OVC015
     FM121500 31018G28KT 6SM -SHSN OVC025=

USA.gov is the U.S. government's official web portal to all federal, state and local government web resources and services.